Advance, IN

6:22 PM EDT on May 25, 2015 (GMT -0400)
Boone County Airport | | Change Station
CLOSE
Current Station
Personal Weather Station
Location: Lebanon, IN
Elevation: 959 ft
Nearby Weather Stations

Elev 959 ft 40.00 °N, 86.44 °W | Updated 13 minutes ago

Partly Cloudy
Partly Cloudy
79.2 °F
Feels Like 81 °F
N
15.5
Wind Variable Wind from South

Today
High -- | Low -- °F
--% Chance of Precip.
Yesterday
High -- | Low -- °F
Precip. -- in
6:23 AM 9:03 PM
First Quarter, 52% visible
Pressure 30.04 in
Visibility 10.0 miles
Clouds Scattered Clouds 3300 ft
Scattered Clouds 4200 ft
Scattered Clouds 4800 ft
Heat Index 81 °F
Dew Point 65 °F
Humidity 61%
Rainfall 0.00 in
Snow Depth Not available.
UV 3 out of 12
Pollen 7.10 out of 12
Air Quality Not available.
Flu Activity Sporadic
METAR KTYQ 252155Z AUTO 20015G25KT 10SM SCT033 SCT042 SCT048 26/16 A3004 RMK AO2 T02600160

More Conditions Fewer Conditions

Pressure 30.04 in
Visibility 10.0 miles
Clouds Scattered Clouds 3300 ft
Scattered Clouds 4200 ft
Scattered Clouds 4800 ft
Heat Index 81 °F
Dew Point 65 °F
Humidity 61%
Rainfall 0.00 in
Snow Depth Not available.
UV 3 out of 12
Pollen 7.10 out of 12
Air Quality Not available.
Flu Activity Sporadic
METAR KTYQ 252155Z AUTO 20015G25KT 10SM SCT033 SCT042 SCT048 26/16 A3004 RMK AO2 T02600160

More Conditions Fewer Conditions

10-Day Weather Forecast

Almanac

Astronomy

May. 25, 2015 Rise Set
Actual Time
Civil Twilight
Nautical Twilight
Astronomical Twilight
Moon
Length of Visible Light
Length of Day
Tomorrow will be .
, % of the Moon is Illuminated

Today's Extremes

State Highs State Lows

Community

WunderPhotos

Upload Photos

1,824,149 photos uploaded!

WunderBlogs® & News

Nearby

Air Quality

  Air Quality AQ Index Pollutant
Not available.

Snow Depth

Station Depth Elevation

Earthquake Activity

City Distance Mag. Time & Date
Minimum magnitude displayed is 2.5.

Coastal Water Temperatures

Place Temperature

Stations

Nearby Weather Stations

Station Location Temp. Windchill Dew Point Humidity Wind Precip. Elev Updated Type